sensor_id;sensor_type;location;lat;lon;timestamp;temperature;humidity
23116;DHT22;11727;52.134;5.052;2023-05-09T00:01:13;15.40;99.90
23116;DHT22;11727;52.134;5.052;2023-05-09T00:03:39;15.50;99.90
23116;DHT22;11727;52.134;5.052;2023-05-09T00:06:08;15.50;99.90
23116;DHT22;11727;52.134;5.052;2023-05-09T00:08:34;15.50;99.90
23116;DHT22;11727;52.134;5.052;2023-05-09T00:11:01;15.50;99.90
23116;DHT22;11727;52.134;5.052;2023-05-09T00:13:26;15.50;99.90
23116;DHT22;11727;52.134;5.052;2023-05-09T00:15:52;15.50;99.90
23116;DHT22;11727;52.134;5.052;2023-05-09T00:18:19;15.50;99.90
23116;DHT22;11727;52.134;5.052;2023-05-09T00:20:44;15.40;99.90
23116;DHT22;11727;52.134;5.052;2023-05-09T00:23:10;15.50;99.90
23116;DHT22;11727;52.134;5.052;2023-05-09T00:25:36;15.50;99.90
23116;DHT22;11727;52.134;5.052;2023-05-09T00:28:01;15.40;99.90
23116;DHT22;11727;52.134;5.052;2023-05-09T00:30:27;15.40;99.90
23116;DHT22;11727;52.134;5.052;2023-05-09T00:32:52;15.40;99.90
23116;DHT22;11727;52.134;5.052;2023-05-09T00:35:18;15.40;99.90
23116;DHT22;11727;52.134;5.052;2023-05-09T00:37:44;15.40;99.90
23116;DHT22;11727;52.134;5.052;2023-05-09T00:40:10;15.40;99.90
23116;DHT22;11727;52.134;5.052;2023-05-09T00:42:36;15.40;99.90
23116;DHT22;11727;52.134;5.052;2023-05-09T00:45:01;15.40;99.90
23116;DHT22;11727;52.134;5.052;2023-05-09T00:47:28;15.40;99.90
23116;DHT22;11727;52.134;5.052;2023-05-09T00:49:55;15.40;99.90
23116;DHT22;11727;52.134;5.052;2023-05-09T00:52:23;15.40;99.90
23116;DHT22;11727;52.134;5.052;2023-05-09T00:54:54;15.40;99.90
23116;DHT22;11727;52.134;5.052;2023-05-09T00:57:20;15.30;99.90
23116;DHT22;11727;52.134;5.052;2023-05-09T00:59:47;15.30;99.90
23116;DHT22;11727;52.134;5.052;2023-05-09T01:02:13;15.30;99.90
23116;DHT22;11727;52.134;5.052;2023-05-09T01:04:39;15.30;99.90
23116;DHT22;11727;52.134;5.052;2023-05-09T01:07:21;15.30;99.90
23116;DHT22;11727;52.134;5.052;2023-05-09T01:17:52;15.20;99.90
23116;DHT22;11727;52.134;5.052;2023-05-09T01:23:31;15.20;99.90
23116;DHT22;11727;52.134;5.052;2023-05-09T01:29:59;15.20;99.90
23116;DHT22;11727;52.134;5.052;2023-05-09T01:32:24;15.20;99.90
23116;DHT22;11727;52.134;5.052;2023-05-09T01:34:52;15.20;99.90
23116;DHT22;11727;52.134;5.052;2023-05-09T01:37:23;15.20;99.90
23116;DHT22;11727;52.134;5.052;2023-05-09T01:39:52;15.20;99.90
23116;DHT22;11727;52.134;5.052;2023-05-09T01:42:20;15.20;99.90
23116;DHT22;11727;52.134;5.052;2023-05-09T01:44:48;15.10;99.90
23116;DHT22;11727;52.134;5.052;2023-05-09T01:47:16;15.10;99.90
23116;DHT22;11727;52.134;5.052;2023-05-09T01:49:43;15.10;99.90
23116;DHT22;11727;52.134;5.052;2023-05-09T01:52:13;15.10;99.90
23116;DHT22;11727;52.134;5.052;2023-05-09T01:54:40;15.10;99.90
23116;DHT22;11727;52.134;5.052;2023-05-09T01:57:07;15.10;99.90
23116;DHT22;11727;52.134;5.052;2023-05-09T01:59:33;15.10;99.90
23116;DHT22;11727;52.134;5.052;2023-05-09T02:02:02;15.10;99.90
23116;DHT22;11727;52.134;5.052;2023-05-09T02:04:29;15.10;99.90
23116;DHT22;11727;52.134;5.052;2023-05-09T02:06:56;15.10;99.90
23116;DHT22;11727;52.134;5.052;2023-05-09T02:09:22;15.10;99.90
23116;DHT22;11727;52.134;5.052;2023-05-09T02:11:48;15.10;99.90
23116;DHT22;11727;52.134;5.052;2023-05-09T02:14:13;15.10;99.90
23116;DHT22;11727;52.134;5.052;2023-05-09T02:16:39;15.10;99.90
23116;DHT22;11727;52.134;5.052;2023-05-09T02:19:05;15.10;99.90
23116;DHT22;11727;52.134;5.052;2023-05-09T02:21:31;15.00;99.90
23116;DHT22;11727;52.134;5.052;2023-05-09T02:23:57;15.10;99.90
23116;DHT22;11727;52.134;5.052;2023-05-09T02:26:24;15.00;99.90
23116;DHT22;11727;52.134;5.052;2023-05-09T02:28:51;15.00;99.90
23116;DHT22;11727;52.134;5.052;2023-05-09T02:31:19;15.00;99.90
23116;DHT22;11727;52.134;5.052;2023-05-09T02:33:46;15.00;99.90
23116;DHT22;11727;52.134;5.052;2023-05-09T02:36:15;15.00;99.90
23116;DHT22;11727;52.134;5.052;2023-05-09T02:38:42;15.00;99.90
23116;DHT22;11727;52.134;5.052;2023-05-09T02:41:17;15.00;99.90
23116;DHT22;11727;52.134;5.052;2023-05-09T02:43:43;14.90;99.90
23116;DHT22;11727;52.134;5.052;2023-05-09T02:46:09;14.90;99.90
23116;DHT22;11727;52.134;5.052;2023-05-09T02:48:35;15.00;99.90
23116;DHT22;11727;52.134;5.052;2023-05-09T02:51:01;14.90;99.90
23116;DHT22;11727;52.134;5.052;2023-05-09T02:53:27;14.90;99.90
23116;DHT22;11727;52.134;5.052;2023-05-09T02:55:53;14.90;99.90
23116;DHT22;11727;52.134;5.052;2023-05-09T02:58:19;14.90;99.90
23116;DHT22;11727;52.134;5.052;2023-05-09T03:00:45;14.90;99.90
23116;DHT22;11727;52.134;5.052;2023-05-09T03:03:11;14.90;99.90
23116;DHT22;11727;52.134;5.052;2023-05-09T03:05:37;14.80;99.90
23116;DHT22;11727;52.134;5.052;2023-05-09T03:08:02;14.80;99.90
23116;DHT22;11727;52.134;5.052;2023-05-09T03:10:28;14.80;99.90
23116;DHT22;11727;52.134;5.052;2023-05-09T03:12:54;14.70;99.90
23116;DHT22;11727;52.134;5.052;2023-05-09T03:15:20;14.70;99.90
23116;DHT22;11727;52.134;5.052;2023-05-09T03:17:46;14.70;99.90
23116;DHT22;11727;52.134;5.052;2023-05-09T03:20:12;14.70;99.90
23116;DHT22;11727;52.134;5.052;2023-05-09T03:22:38;14.60;99.90
23116;DHT22;11727;52.134;5.052;2023-05-09T03:25:04;14.60;99.90
23116;DHT22;11727;52.134;5.052;2023-05-09T03:27:30;14.60;99.90
23116;DHT22;11727;52.134;5.052;2023-05-09T03:29:56;14.50;99.90
23116;DHT22;11727;52.134;5.052;2023-05-09T03:32:22;14.50;99.90
23116;DHT22;11727;52.134;5.052;2023-05-09T03:34:48;14.50;99.90
23116;DHT22;11727;52.134;5.052;2023-05-09T03:37:13;14.50;99.90
23116;DHT22;11727;52.134;5.052;2023-05-09T03:39:41;14.50;99.90
23116;DHT22;11727;52.134;5.052;2023-05-09T03:42:10;14.50;99.90
23116;DHT22;11727;52.134;5.052;2023-05-09T03:44:49;14.40;99.90
23116;DHT22;11727;52.134;5.052;2023-05-09T03:47:15;14.40;99.90
23116;DHT22;11727;52.134;5.052;2023-05-09T03:49:40;14.40;99.90
23116;DHT22;11727;52.134;5.052;2023-05-09T03:52:08;14.40;99.90
23116;DHT22;11727;52.134;5.052;2023-05-09T03:54:41;14.40;99.90
23116;DHT22;11727;52.134;5.052;2023-05-09T03:57:13;14.40;99.90
23116;DHT22;11727;52.134;5.052;2023-05-09T03:59:39;14.40;99.90
23116;DHT22;11727;52.134;5.052;2023-05-09T04:02:05;14.40;99.90
23116;DHT22;11727;52.134;5.052;2023-05-09T04:04:30;14.40;99.90
23116;DHT22;11727;52.134;5.052;2023-05-09T04:06:56;14.40;99.90
23116;DHT22;11727;52.134;5.052;2023-05-09T04:09:22;14.50;99.90
23116;DHT22;11727;52.134;5.052;2023-05-09T04:11:47;14.40;99.90
23116;DHT22;11727;52.134;5.052;2023-05-09T04:14:13;14.50;99.90
23116;DHT22;11727;52.134;5.052;2023-05-09T04:16:39;14.50;99.90
23116;DHT22;11727;52.134;5.052;2023-05-09T04:19:04;14.50;99.90
23116;DHT22;11727;52.134;5.052;2023-05-09T04:21:31;14.50;99.90
23116;DHT22;11727;52.134;5.052;2023-05-09T04:23:57;14.50;99.90
23116;DHT22;11727;52.134;5.052;2023-05-09T04:26:23;14.50;99.90
23116;DHT22;11727;52.134;5.052;2023-05-09T04:28:49;14.50;99.90
23116;DHT22;11727;52.134;5.052;2023-05-09T04:31:15;14.50;99.90
23116;DHT22;11727;52.134;5.052;2023-05-09T04:33:41;14.50;99.90
23116;DHT22;11727;52.134;5.052;2023-05-09T04:36:07;14.50;99.90
23116;DHT22;11727;52.134;5.052;2023-05-09T04:38:33;14.60;99.90
23116;DHT22;11727;52.134;5.052;2023-05-09T04:40:58;14.60;99.90
23116;DHT22;11727;52.134;5.052;2023-05-09T04:43:25;14.60;99.90
23116;DHT22;11727;52.134;5.052;2023-05-09T04:45:52;14.60;99.90
23116;DHT22;11727;52.134;5.052;2023-05-09T04:48:18;14.60;99.90
23116;DHT22;11727;52.134;5.052;2023-05-09T04:50:45;14.60;99.90
23116;DHT22;11727;52.134;5.052;2023-05-09T04:53:13;14.50;99.90
23116;DHT22;11727;52.134;5.052;2023-05-09T04:55:39;14.50;99.90
23116;DHT22;11727;52.134;5.052;2023-05-09T04:58:04;14.50;99.90
23116;DHT22;11727;52.134;5.052;2023-05-09T05:00:30;14.60;99.90
23116;DHT22;11727;52.134;5.052;2023-05-09T05:02:56;14.60;99.90
23116;DHT22;11727;52.134;5.052;2023-05-09T05:05:22;14.60;99.90
23116;DHT22;11727;52.134;5.052;2023-05-09T05:07:47;14.60;99.90
23116;DHT22;11727;52.134;5.052;2023-05-09T05:10:13;14.60;99.90
23116;DHT22;11727;52.134;5.052;2023-05-09T05:12:39;14.60;99.90
23116;DHT22;11727;52.134;5.052;2023-05-09T05:15:14;14.60;99.90
23116;DHT22;11727;52.134;5.052;2023-05-09T05:17:40;14.70;99.90
23116;DHT22;11727;52.134;5.052;2023-05-09T05:20:06;14.70;99.90
23116;DHT22;11727;52.134;5.052;2023-05-09T05:22:32;14.80;99.90
23116;DHT22;11727;52.134;5.052;2023-05-09T05:24:59;14.80;99.90
23116;DHT22;11727;52.134;5.052;2023-05-09T05:27:25;14.90;99.90
23116;DHT22;11727;52.134;5.052;2023-05-09T05:29:50;14.90;99.90
23116;DHT22;11727;52.134;5.052;2023-05-09T05:32:16;15.00;99.90
23116;DHT22;11727;52.134;5.052;2023-05-09T05:34:42;15.00;99.90
23116;DHT22;11727;52.134;5.052;2023-05-09T05:37:07;15.10;99.90
23116;DHT22;11727;52.134;5.052;2023-05-09T05:39:33;15.10;99.90
23116;DHT22;11727;52.134;5.052;2023-05-09T05:41:59;15.10;99.90
23116;DHT22;11727;52.134;5.052;2023-05-09T05:44:25;15.20;99.90
23116;DHT22;11727;52.134;5.052;2023-05-09T05:46:51;15.20;99.90
23116;DHT22;11727;52.134;5.052;2023-05-09T05:49:16;15.20;99.90
23116;DHT22;11727;52.134;5.052;2023-05-09T05:51:42;15.20;99.90
23116;DHT22;11727;52.134;5.052;2023-05-09T05:54:08;15.20;99.90
23116;DHT22;11727;52.134;5.052;2023-05-09T05:56:33;15.20;99.90
23116;DHT22;11727;52.134;5.052;2023-05-09T05:58:59;15.20;99.90
23116;DHT22;11727;52.134;5.052;2023-05-09T06:01:24;15.10;99.90
23116;DHT22;11727;52.134;5.052;2023-05-09T06:03:50;15.20;99.90
23116;DHT22;11727;52.134;5.052;2023-05-09T06:06:20;15.10;99.90
23116;DHT22;11727;52.134;5.052;2023-05-09T06:08:46;15.10;99.90
23116;DHT22;11727;52.134;5.052;2023-05-09T06:11:14;15.00;99.90
23116;DHT22;11727;52.134;5.052;2023-05-09T06:13:40;15.00;99.90
23116;DHT22;11727;52.134;5.052;2023-05-09T06:16:07;15.00;99.90
23116;DHT22;11727;52.134;5.052;2023-05-09T06:18:34;15.00;99.90
23116;DHT22;11727;52.134;5.052;2023-05-09T06:21:06;15.00;99.90
23116;DHT22;11727;52.134;5.052;2023-05-09T06:23:32;14.90;99.90
23116;DHT22;11727;52.134;5.052;2023-05-09T06:25:58;14.90;99.90
23116;DHT22;11727;52.134;5.052;2023-05-09T06:28:23;14.80;99.90
23116;DHT22;11727;52.134;5.052;2023-05-09T06:30:52;14.80;99.90
23116;DHT22;11727;52.134;5.052;2023-05-09T06:33:19;14.80;99.90
23116;DHT22;11727;52.134;5.052;2023-05-09T06:35:48;14.70;99.90
23116;DHT22;11727;52.134;5.052;2023-05-09T06:38:16;14.70;99.90
23116;DHT22;11727;52.134;5.052;2023-05-09T06:40:42;14.60;99.90
23116;DHT22;11727;52.134;5.052;2023-05-09T06:43:07;14.60;99.90
23116;DHT22;11727;52.134;5.052;2023-05-09T06:45:33;14.60;99.90
23116;DHT22;11727;52.134;5.052;2023-05-09T06:47:59;14.50;99.90
23116;DHT22;11727;52.134;5.052;2023-05-09T06:50:25;14.50;99.90
23116;DHT22;11727;52.134;5.052;2023-05-09T06:52:50;14.50;99.90
23116;DHT22;11727;52.134;5.052;2023-05-09T06:55:16;14.50;99.90
23116;DHT22;11727;52.134;5.052;2023-05-09T06:57:42;14.50;99.90
23116;DHT22;11727;52.134;5.052;2023-05-09T07:00:08;14.50;99.90
23116;DHT22;11727;52.134;5.052;2023-05-09T07:02:35;14.50;99.90
23116;DHT22;11727;52.134;5.052;2023-05-09T07:05:06;14.50;99.90
23116;DHT22;11727;52.134;5.052;2023-05-09T07:07:32;14.40;99.90
23116;DHT22;11727;52.134;5.052;2023-05-09T07:10:03;14.50;99.90
23116;DHT22;11727;52.134;5.052;2023-05-09T07:12:32;14.50;99.90
23116;DHT22;11727;52.134;5.052;2023-05-09T07:14:58;14.40;99.90
23116;DHT22;11727;52.134;5.052;2023-05-09T07:17:24;14.40;99.90
23116;DHT22;11727;52.134;5.052;2023-05-09T07:19:50;14.40;99.90
23116;DHT22;11727;52.134;5.052;2023-05-09T07:22:19;14.40;99.90
23116;DHT22;11727;52.134;5.052;2023-05-09T07:24:45;14.40;99.90
23116;DHT22;11727;52.134;5.052;2023-05-09T07:27:13;14.40;99.90
23116;DHT22;11727;52.134;5.052;2023-05-09T07:29:39;14.40;99.90
23116;DHT22;11727;52.134;5.052;2023-05-09T07:32:05;14.40;99.90
23116;DHT22;11727;52.134;5.052;2023-05-09T07:34:30;14.40;99.90
23116;DHT22;11727;52.134;5.052;2023-05-09T07:36:56;14.40;99.90
23116;DHT22;11727;52.134;5.052;2023-05-09T07:39:22;14.40;99.90
23116;DHT22;11727;52.134;5.052;2023-05-09T07:41:48;14.40;99.90
23116;DHT22;11727;52.134;5.052;2023-05-09T07:44:14;14.40;99.90
23116;DHT22;11727;52.134;5.052;2023-05-09T07:46:40;14.50;99.90
23116;DHT22;11727;52.134;5.052;2023-05-09T07:49:06;14.40;99.90
23116;DHT22;11727;52.134;5.052;2023-05-09T07:51:32;14.40;99.90
23116;DHT22;11727;52.134;5.052;2023-05-09T07:53:58;14.50;99.90
23116;DHT22;11727;52.134;5.052;2023-05-09T07:56:23;14.50;99.90
23116;DHT22;11727;52.134;5.052;2023-05-09T07:58:49;14.50;99.90
23116;DHT22;11727;52.134;5.052;2023-05-09T08:01:15;14.50;99.90
23116;DHT22;11727;52.134;5.052;2023-05-09T08:03:40;14.50;99.90
23116;DHT22;11727;52.134;5.052;2023-05-09T08:06:06;14.40;99.90
23116;DHT22;11727;52.134;5.052;2023-05-09T08:08:32;14.50;99.90
23116;DHT22;11727;52.134;5.052;2023-05-09T08:10:57;14.40;99.90
23116;DHT22;11727;52.134;5.052;2023-05-09T08:13:23;14.40;99.90
23116;DHT22;11727;52.134;5.052;2023-05-09T08:15:49;14.40;99.90
23116;DHT22;11727;52.134;5.052;2023-05-09T08:18:18;14.40;99.90
23116;DHT22;11727;52.134;5.052;2023-05-09T08:20:44;14.50;99.90
23116;DHT22;11727;52.134;5.052;2023-05-09T08:23:09;14.50;99.90
23116;DHT22;11727;52.134;5.052;2023-05-09T08:25:35;14.50;99.90
23116;DHT22;11727;52.134;5.052;2023-05-09T08:28:00;14.50;99.90
23116;DHT22;11727;52.134;5.052;2023-05-09T08:30:26;14.50;99.90
23116;DHT22;11727;52.134;5.052;2023-05-09T08:32:54;14.50;99.90
23116;DHT22;11727;52.134;5.052;2023-05-09T08:35:20;14.50;99.90
23116;DHT22;11727;52.134;5.052;2023-05-09T08:37:45;14.60;99.90
23116;DHT22;11727;52.134;5.052;2023-05-09T08:40:12;14.60;99.90
23116;DHT22;11727;52.134;5.052;2023-05-09T08:42:39;14.60;99.90
23116;DHT22;11727;52.134;5.052;2023-05-09T08:45:10;14.60;99.90
23116;DHT22;11727;52.134;5.052;2023-05-09T08:47:37;14.60;99.90
23116;DHT22;11727;52.134;5.052;2023-05-09T08:50:03;14.60;99.90
23116;DHT22;11727;52.134;5.052;2023-05-09T08:52:31;14.50;99.90
23116;DHT22;11727;52.134;5.052;2023-05-09T08:54:57;14.60;99.90
23116;DHT22;11727;52.134;5.052;2023-05-09T08:57:23;14.50;99.90
23116;DHT22;11727;52.134;5.052;2023-05-09T08:59:50;14.60;99.90
23116;DHT22;11727;52.134;5.052;2023-05-09T09:02:17;14.60;99.90
23116;DHT22;11727;52.134;5.052;2023-05-09T09:04:42;14.60;99.90
23116;DHT22;11727;52.134;5.052;2023-05-09T09:07:10;14.50;99.90
23116;DHT22;11727;52.134;5.052;2023-05-09T09:09:36;14.60;99.90
23116;DHT22;11727;52.134;5.052;2023-05-09T09:12:05;14.60;99.90
23116;DHT22;11727;52.134;5.052;2023-05-09T09:14:36;14.60;99.90
23116;DHT22;11727;52.134;5.052;2023-05-09T09:17:04;14.60;99.90
23116;DHT22;11727;52.134;5.052;2023-05-09T09:19:32;14.60;99.90
23116;DHT22;11727;52.134;5.052;2023-05-09T09:21:59;14.60;99.90
23116;DHT22;11727;52.134;5.052;2023-05-09T09:24:27;14.60;99.90
23116;DHT22;11727;52.134;5.052;2023-05-09T09:26:53;14.70;99.90
23116;DHT22;11727;52.134;5.052;2023-05-09T09:29:19;14.70;99.90
23116;DHT22;11727;52.134;5.052;2023-05-09T09:31:46;14.70;99.90
23116;DHT22;11727;52.134;5.052;2023-05-09T09:34:19;14.70;99.90
23116;DHT22;11727;52.134;5.052;2023-05-09T09:36:45;14.80;99.90
23116;DHT22;11727;52.134;5.052;2023-05-09T09:39:12;14.80;99.90
23116;DHT22;11727;52.134;5.052;2023-05-09T09:41:39;14.80;99.90
23116;DHT22;11727;52.134;5.052;2023-05-09T09:44:09;14.70;99.90
23116;DHT22;11727;52.134;5.052;2023-05-09T09:46:52;14.70;99.90
23116;DHT22;11727;52.134;5.052;2023-05-09T09:49:23;14.70;99.90
23116;DHT22;11727;52.134;5.052;2023-05-09T09:51:53;14.70;99.90
23116;DHT22;11727;52.134;5.052;2023-05-09T09:54:19;14.70;99.90
23116;DHT22;11727;52.134;5.052;2023-05-09T09:56:49;14.70;99.90
23116;DHT22;11727;52.134;5.052;2023-05-09T09:59:21;14.70;99.90
23116;DHT22;11727;52.134;5.052;2023-05-09T10:02:03;14.80;99.90
23116;DHT22;11727;52.134;5.052;2023-05-09T10:04:31;14.80;99.90
23116;DHT22;11727;52.134;5.052;2023-05-09T10:06:58;14.80;99.90
23116;DHT22;11727;52.134;5.052;2023-05-09T10:09:25;14.80;99.90
23116;DHT22;11727;52.134;5.052;2023-05-09T10:11:52;14.80;99.90
23116;DHT22;11727;52.134;5.052;2023-05-09T10:14:22;14.80;99.90
23116;DHT22;11727;52.134;5.052;2023-05-09T10:16:50;14.90;99.90
23116;DHT22;11727;52.134;5.052;2023-05-09T10:19:19;14.80;99.90
23116;DHT22;11727;52.134;5.052;2023-05-09T10:21:51;14.80;99.90
23116;DHT22;11727;52.134;5.052;2023-05-09T10:24:28;14.80;99.90
23116;DHT22;11727;52.134;5.052;2023-05-09T10:27:01;14.80;99.90
23116;DHT22;11727;52.134;5.052;2023-05-09T10:29:34;14.80;99.90
23116;DHT22;11727;52.134;5.052;2023-05-09T10:32:26;14.80;99.90
23116;DHT22;11727;52.134;5.052;2023-05-09T10:34:53;14.80;99.90
23116;DHT22;11727;52.134;5.052;2023-05-09T10:37:21;14.80;99.90
23116;DHT22;11727;52.134;5.052;2023-05-09T10:39:47;14.80;99.90
23116;DHT22;11727;52.134;5.052;2023-05-09T10:42:18;14.80;99.90
23116;DHT22;11727;52.134;5.052;2023-05-09T10:44:45;14.70;99.90
23116;DHT22;11727;52.134;5.052;2023-05-09T10:47:11;14.70;99.90
23116;DHT22;11727;52.134;5.052;2023-05-09T10:49:38;14.70;99.90
23116;DHT22;11727;52.134;5.052;2023-05-09T10:52:04;14.70;99.90
23116;DHT22;11727;52.134;5.052;2023-05-09T10:54:30;14.70;99.90
23116;DHT22;11727;52.134;5.052;2023-05-09T10:56:59;14.70;99.90
23116;DHT22;11727;52.134;5.052;2023-05-09T10:59:33;14.70;99.90
23116;DHT22;11727;52.134;5.052;2023-05-09T11:02:03;14.70;99.90
23116;DHT22;11727;52.134;5.052;2023-05-09T11:04:30;14.70;99.90
23116;DHT22;11727;52.134;5.052;2023-05-09T11:07:00;14.70;99.90
23116;DHT22;11727;52.134;5.052;2023-05-09T11:09:36;14.80;99.90
23116;DHT22;11727;52.134;5.052;2023-05-09T11:12:12;14.80;99.90
23116;DHT22;11727;52.134;5.052;2023-05-09T11:14:46;14.80;99.90
23116;DHT22;11727;52.134;5.052;2023-05-09T11:17:12;14.80;99.90
23116;DHT22;11727;52.134;5.052;2023-05-09T11:22:27;14.90;99.90
23116;DHT22;11727;52.134;5.052;2023-05-09T11:25:10;15.00;99.90
23116;DHT22;11727;52.134;5.052;2023-05-09T11:27:47;14.90;99.90
23116;DHT22;11727;52.134;5.052;2023-05-09T11:30:16;15.00;99.90
23116;DHT22;11727;52.134;5.052;2023-05-09T11:32:50;15.00;99.90
23116;DHT22;11727;52.134;5.052;2023-05-09T11:35:17;15.00;99.90
23116;DHT22;11727;52.134;5.052;2023-05-09T11:38:04;15.00;99.90
23116;DHT22;11727;52.134;5.052;2023-05-09T11:40:31;15.00;99.90
23116;DHT22;11727;52.134;5.052;2023-05-09T11:42:58;15.00;99.90
23116;DHT22;11727;52.134;5.052;2023-05-09T11:45:29;15.00;99.90
23116;DHT22;11727;52.134;5.052;2023-05-09T11:47:56;14.90;99.90
23116;DHT22;11727;52.134;5.052;2023-05-09T11:50:22;14.90;99.90
23116;DHT22;11727;52.134;5.052;2023-05-09T11:52:50;14.90;99.90
23116;DHT22;11727;52.134;5.052;2023-05-09T11:55:17;15.00;99.90
23116;DHT22;11727;52.134;5.052;2023-05-09T11:57:50;15.00;99.90
23116;DHT22;11727;52.134;5.052;2023-05-09T12:00:18;14.90;99.90
23116;DHT22;11727;52.134;5.052;2023-05-09T12:02:44;14.90;99.90
23116;DHT22;11727;52.134;5.052;2023-05-09T12:05:15;14.90;99.90
23116;DHT22;11727;52.134;5.052;2023-05-09T12:07:42;14.90;99.90
23116;DHT22;11727;52.134;5.052;2023-05-09T12:10:10;14.90;99.90
23116;DHT22;11727;52.134;5.052;2023-05-09T12:12:42;14.80;99.90
23116;DHT22;11727;52.134;5.052;2023-05-09T12:15:08;14.80;99.90
23116;DHT22;11727;52.134;5.052;2023-05-09T12:17:37;14.80;99.90
23116;DHT22;11727;52.134;5.052;2023-05-09T12:20:03;14.80;99.90
23116;DHT22;11727;52.134;5.052;2023-05-09T12:22:34;14.80;99.90
23116;DHT22;11727;52.134;5.052;2023-05-09T12:25:03;14.80;99.90
23116;DHT22;11727;52.134;5.052;2023-05-09T12:27:30;14.80;99.90
23116;DHT22;11727;52.134;5.052;2023-05-09T12:29:58;14.80;99.90
23116;DHT22;11727;52.134;5.052;2023-05-09T12:32:24;14.90;99.90
23116;DHT22;11727;52.134;5.052;2023-05-09T12:34:56;14.90;99.90
23116;DHT22;11727;52.134;5.052;2023-05-09T12:37:22;14.90;99.90
23116;DHT22;11727;52.134;5.052;2023-05-09T12:40:07;15.00;99.90
23116;DHT22;11727;52.134;5.052;2023-05-09T12:42:35;15.00;99.90
23116;DHT22;11727;52.134;5.052;2023-05-09T12:45:01;15.00;99.90
23116;DHT22;11727;52.134;5.052;2023-05-09T12:47:28;15.00;99.90
23116;DHT22;11727;52.134;5.052;2023-05-09T12:49:58;15.00;99.90
23116;DHT22;11727;52.134;5.052;2023-05-09T12:52:24;15.00;99.90
23116;DHT22;11727;52.134;5.052;2023-05-09T12:54:52;14.90;99.90
23116;DHT22;11727;52.134;5.052;2023-05-09T12:57:25;14.90;99.90
23116;DHT22;11727;52.134;5.052;2023-05-09T12:59:57;14.90;99.90
23116;DHT22;11727;52.134;5.052;2023-05-09T13:02:25;15.00;99.90
23116;DHT22;11727;52.134;5.052;2023-05-09T13:05:10;15.00;99.90
23116;DHT22;11727;52.134;5.052;2023-05-09T13:07:44;15.00;99.90
23116;DHT22;11727;52.134;5.052;2023-05-09T13:10:15;15.00;99.90
23116;DHT22;11727;52.134;5.052;2023-05-09T13:12:42;15.00;99.90
23116;DHT22;11727;52.134;5.052;2023-05-09T13:15:14;15.00;99.90
23116;DHT22;11727;52.134;5.052;2023-05-09T13:17:40;15.00;99.90
23116;DHT22;11727;52.134;5.052;2023-05-09T13:20:07;15.10;99.90
23116;DHT22;11727;52.134;5.052;2023-05-09T13:22:33;15.10;99.90
23116;DHT22;11727;52.134;5.052;2023-05-09T13:24:59;15.10;99.90
23116;DHT22;11727;52.134;5.052;2023-05-09T13:27:38;15.10;99.90
23116;DHT22;11727;52.134;5.052;2023-05-09T13:30:05;15.10;99.90
23116;DHT22;11727;52.134;5.052;2023-05-09T13:32:32;15.20;99.90
23116;DHT22;11727;52.134;5.052;2023-05-09T13:34:58;15.20;99.90
23116;DHT22;11727;52.134;5.052;2023-05-09T13:37:25;15.20;99.90
23116;DHT22;11727;52.134;5.052;2023-05-09T13:39:51;15.20;99.90
23116;DHT22;11727;52.134;5.052;2023-05-09T13:42:18;15.20;99.90
23116;DHT22;11727;52.134;5.052;2023-05-09T13:44:44;15.10;99.90
23116;DHT22;11727;52.134;5.052;2023-05-09T13:47:10;15.00;99.90
23116;DHT22;11727;52.134;5.052;2023-05-09T13:49:36;15.00;99.90
23116;DHT22;11727;52.134;5.052;2023-05-09T13:52:08;15.00;99.90
23116;DHT22;11727;52.134;5.052;2023-05-09T13:54:34;15.00;99.90
23116;DHT22;11727;52.134;5.052;2023-05-09T13:57:03;15.00;99.90
23116;DHT22;11727;52.134;5.052;2023-05-09T13:59:30;15.00;99.90
23116;DHT22;11727;52.134;5.052;2023-05-09T14:01:57;15.10;99.90
23116;DHT22;11727;52.134;5.052;2023-05-09T14:04:25;15.00;99.90
23116;DHT22;11727;52.134;5.052;2023-05-09T14:06:51;15.10;99.90
23116;DHT22;11727;52.134;5.052;2023-05-09T14:09:17;15.00;99.90
23116;DHT22;11727;52.134;5.052;2023-05-09T14:11:43;15.00;99.90
23116;DHT22;11727;52.134;5.052;2023-05-09T14:14:10;14.90;99.90
23116;DHT22;11727;52.134;5.052;2023-05-09T14:16:35;14.90;99.90
23116;DHT22;11727;52.134;5.052;2023-05-09T14:19:04;14.80;99.90
23116;DHT22;11727;52.134;5.052;2023-05-09T14:21:31;14.80;99.90
23116;DHT22;11727;52.134;5.052;2023-05-09T14:23:57;14.80;99.90
23116;DHT22;11727;52.134;5.052;2023-05-09T14:26:25;14.80;99.90
23116;DHT22;11727;52.134;5.052;2023-05-09T14:28:51;14.80;99.90
23116;DHT22;11727;52.134;5.052;2023-05-09T14:31:17;14.70;99.90
23116;DHT22;11727;52.134;5.052;2023-05-09T14:33:46;14.80;99.90
23116;DHT22;11727;52.134;5.052;2023-05-09T14:36:12;14.70;99.90
23116;DHT22;11727;52.134;5.052;2023-05-09T14:38:37;14.70;99.90
23116;DHT22;11727;52.134;5.052;2023-05-09T14:41:03;14.70;99.90
23116;DHT22;11727;52.134;5.052;2023-05-09T14:43:31;14.80;99.90
23116;DHT22;11727;52.134;5.052;2023-05-09T14:45:57;14.80;99.90
23116;DHT22;11727;52.134;5.052;2023-05-09T14:48:23;14.80;99.90
23116;DHT22;11727;52.134;5.052;2023-05-09T14:50:48;14.70;99.90
23116;DHT22;11727;52.134;5.052;2023-05-09T14:53:18;14.80;99.90
23116;DHT22;11727;52.134;5.052;2023-05-09T14:55:43;14.80;99.90
23116;DHT22;11727;52.134;5.052;2023-05-09T14:58:09;14.80;99.90
23116;DHT22;11727;52.134;5.052;2023-05-09T15:00:37;14.80;99.90
23116;DHT22;11727;52.134;5.052;2023-05-09T15:03:03;14.70;99.90
23116;DHT22;11727;52.134;5.052;2023-05-09T15:05:29;14.70;99.90
23116;DHT22;11727;52.134;5.052;2023-05-09T15:07:54;14.70;99.90
23116;DHT22;11727;52.134;5.052;2023-05-09T15:10:24;14.70;99.90
23116;DHT22;11727;52.134;5.052;2023-05-09T15:12:52;14.70;99.90
23116;DHT22;11727;52.134;5.052;2023-05-09T15:15:20;14.70;99.90
23116;DHT22;11727;52.134;5.052;2023-05-09T15:17:47;14.70;99.90
23116;DHT22;11727;52.134;5.052;2023-05-09T15:20:14;14.70;99.90
23116;DHT22;11727;52.134;5.052;2023-05-09T15:22:40;14.70;99.90
23116;DHT22;11727;52.134;5.052;2023-05-09T15:25:06;14.70;99.90
23116;DHT22;11727;52.134;5.052;2023-05-09T15:27:32;14.60;99.90
23116;DHT22;11727;52.134;5.052;2023-05-09T15:29:58;14.60;99.90
23116;DHT22;11727;52.134;5.052;2023-05-09T15:32:23;14.60;99.90
23116;DHT22;11727;52.134;5.052;2023-05-09T15:34:49;14.60;99.90
23116;DHT22;11727;52.134;5.052;2023-05-09T15:37:14;14.60;99.90
23116;DHT22;11727;52.134;5.052;2023-05-09T15:39:41;14.60;99.90
23116;DHT22;11727;52.134;5.052;2023-05-09T15:42:13;14.60;99.90
23116;DHT22;11727;52.134;5.052;2023-05-09T15:44:40;14.60;99.90
23116;DHT22;11727;52.134;5.052;2023-05-09T15:47:05;14.60;99.90
23116;DHT22;11727;52.134;5.052;2023-05-09T15:49:35;14.70;99.90